Oscoda, MI

6:34 AM EST on March 06, 2015 (GMT -0500)
Oscoda-Wurtsmith | Change Station
CLOSE
Current Station
Airport
Location: Oscoda,
Elevation: 633 ft
Nearby Weather Stations

Elev 633 ft 44.45 °N, 83.39 °W | Updated 21 minutes ago

Partly Cloudy
Partly Cloudy
0 °F
Feels Like -16 °F
N
9
Wind Variable Wind from SW

Today
High -- | Low -- °F
--% Chance of Precip.
Yesterday
High -- | Low -- °F
Precip. -- in
7:03 AM 6:28 PM
Full, 100% visible
Pressure 30.37 in
Visibility 10.0 miles
Clouds Clear
Windchill -16 °F
Dew Point -4 °F
Humidity 85%
Rainfall 0.00 in
Snow Depth Not available.
UV 0 out of 12
Pollen .40 out of 12
Air Quality Not available.
Flu Activity Not available.
METAR KOSC 061113Z AUTO 22008KT 10SM CLR M17/M20 A3037 RMK AO2 T11791199

More Conditions Fewer Conditions

Pressure 30.37 in
Visibility 10.0 miles
Clouds Clear
Windchill -16 °F
Dew Point -4 °F
Humidity 85%
Rainfall 0.00 in
Snow Depth Not available.
UV 0 out of 12
Pollen .40 out of 12
Air Quality Not available.
Flu Activity Not available.
METAR KOSC 061113Z AUTO 22008KT 10SM CLR M17/M20 A3037 RMK AO2 T11791199

More Conditions Fewer Conditions

Nowcast | as of 6:00 am EST on March 6, 2015

At 7 am...clear. Temperature 4 above. Southwest winds 9 mph. At 9 am...clear. Temperature 9 above. Southwest winds 13 mph. Wind chill 7 below. At 11 am...mostly clear. Temperature 16. Southwest winds 16 mph. At 1 PM...partly cloudy. Temperature 19. Southwest winds 19 mph with gusts to 30 mph.

×

10-Day Weather Forecast

Almanac

Astronomy

Mar. 06, 2015 Rise Set
Actual Time
Civil Twilight
Nautical Twilight
Astronomical Twilight
Moon
Length of Visible Light
Length of Day
Tomorrow will be .
, % of the Moon is Illuminated

Today's Extremes

State Highs State Lows

Community

WunderPhotos

Upload Photos

1,803,228 photos uploaded!

WunderBlogs® & News

Nearby

Air Quality

  Air Quality AQ Index Pollutant
Not available.

Snow Depth

Station Depth Elevation

Earthquake Activity

City Distance Mag. Time & Date
Minimum magnitude displayed is 2.5.

Coastal Water Temperatures

Place Temperature

Nearby Weather Stations